createdAt,value
2019-03-01T00:01:47.415Z,43.93
2019-03-01T00:07:40.437Z,44.87
2019-03-01T00:13:15.851Z,45.53
2019-03-01T00:19:02.702Z,49.20
2019-03-01T00:24:43.343Z,50.47
2019-03-01T00:30:36.984Z,51.53
2019-03-01T00:36:08.580Z,55.37
2019-03-01T00:41:34.112Z,55.10
2019-03-01T00:46:57.674Z,57.57
2019-03-01T00:52:03.203Z,61.00
2019-03-01T00:57:18.347Z,59.57
2019-03-01T01:02:24.226Z,59.40
2019-03-01T01:07:29.826Z,60.10
2019-03-01T01:12:35.273Z,64.57
2019-03-01T01:17:41.124Z,62.63
2019-03-01T01:22:47.172Z,64.20
2019-03-01T01:27:54.680Z,62.87
2019-03-01T01:33:00.283Z,58.67
2019-03-01T01:38:09.498Z,62.80
2019-03-01T01:43:14.962Z,61.27
2019-03-01T01:48:20.455Z,57.50
2019-03-01T01:53:25.979Z,58.20
2019-03-01T01:58:31.437Z,66.27
2019-03-01T02:03:37.264Z,61.97
2019-03-01T02:08:42.899Z,57.00
2019-03-01T02:13:48.505Z,62.87
2019-03-01T02:18:57.778Z,60.23
2019-03-01T02:24:01.380Z,58.50
2019-03-01T02:29:06.874Z,56.70
2019-03-01T02:34:12.451Z,41.57
2019-03-01T02:39:18.181Z,38.40
2019-03-01T02:44:25.585Z,40.80
2019-03-01T02:49:31.175Z,35.47
2019-03-01T02:54:36.606Z,35.13
2019-03-01T02:59:42.189Z,28.40
2019-03-01T03:05:07.757Z,27.17
2019-03-01T03:10:17.066Z,28.03
2019-03-01T03:15:30.452Z,26.60
2019-03-01T03:20:36.104Z,25.67
2019-03-01T03:25:41.769Z,23.60
2019-03-01T03:30:47.616Z,23.80
2019-03-01T03:35:53.198Z,24.40
2019-03-01T03:41:01.890Z,21.70
2019-03-01T03:46:07.552Z,21.87
2019-03-01T03:51:13.385Z,21.57
2019-03-01T03:56:20.800Z,20.90
2019-03-01T04:01:27.942Z,17.27
2019-03-01T04:06:33.635Z,17.67
2019-03-01T04:11:39.667Z,18.00
2019-03-01T04:16:45.448Z,16.07
2019-03-01T04:21:52.093Z,15.93
2019-03-01T04:26:57.846Z,15.87
2019-03-01T04:32:03.918Z,15.70
2019-03-01T04:37:09.409Z,13.17
2019-03-01T04:42:14.927Z,11.77
2019-03-01T04:47:20.522Z,13.20
2019-03-01T04:52:37.641Z,14.47
2019-03-01T04:57:43.561Z,11.47
2019-03-01T05:02:49.923Z,10.83
2019-03-01T05:07:57.609Z,12.40
2019-03-01T05:13:05.355Z,10.40
2019-03-01T05:18:10.893Z,10.60
2019-03-01T05:23:16.435Z,11.43
2019-03-01T05:28:22.412Z,14.37
2019-03-01T05:33:28.725Z,9.87
2019-03-01T05:38:34.248Z,10.17
2019-03-01T05:43:39.777Z,8.80
2019-03-01T05:48:45.285Z,9.90
2019-03-01T05:53:53.766Z,7.47
2019-03-01T05:59:14.478Z,8.30
2019-03-01T06:04:44.914Z,8.80
2019-03-01T06:10:40.397Z,8.47
2019-03-01T06:16:07.070Z,8.63
2019-03-01T06:21:36.516Z,7.40
2019-03-01T06:27:00.545Z,6.50
2019-03-01T06:32:58.188Z,6.80
2019-03-01T06:39:11.560Z,6.80
2019-03-01T06:44:49.275Z,6.47
2019-03-01T06:50:06.641Z,7.20
2019-03-01T06:55:30.293Z,7.37
2019-03-01T07:00:47.291Z,6.90
2019-03-01T07:05:48.189Z,8.90
2019-03-01T07:10:53.679Z,7.17
2019-03-01T07:15:59.207Z,7.17
2019-03-01T07:21:07.062Z,6.53
2019-03-01T07:26:14.751Z,5.27
2019-03-01T07:31:20.406Z,6.10
2019-03-01T07:36:25.956Z,5.80
2019-03-01T07:41:31.435Z,6.57
2019-03-01T07:46:37.017Z,7.07
2019-03-01T07:51:43.208Z,6.60
2019-03-01T07:56:48.695Z,8.17
2019-03-01T08:01:55.932Z,7.37
2019-03-01T08:07:01.500Z,7.63
2019-03-01T08:12:08.158Z,8.20
2019-03-01T08:17:13.824Z,7.47
2019-03-01T08:22:20.790Z,8.23
2019-03-01T08:27:28.231Z,8.43
2019-03-01T08:32:33.759Z,7.60
2019-03-01T08:37:39.372Z,7.80
2019-03-01T08:42:45.671Z,8.10
2019-03-01T08:47:55.526Z,8.80
2019-03-01T08:52:59.544Z,9.80
2019-03-01T08:58:09.367Z,8.97
2019-03-01T09:03:23.167Z,10.73
2019-03-01T09:08:28.915Z,11.27
2019-03-01T09:13:36.133Z,13.03
2019-03-01T09:18:41.862Z,10.90
2019-03-01T09:24:06.159Z,8.67
2019-03-01T09:29:12.986Z,8.23
2019-03-01T09:34:19.409Z,8.70
2019-03-01T09:39:24.981Z,8.47
2019-03-01T09:44:34.600Z,7.97
2019-03-01T09:49:43.926Z,9.60
2019-03-01T09:54:49.522Z,9.00
2019-03-01T10:05:34.521Z,10.20
2019-03-01T10:10:40.241Z,10.07
2019-03-01T10:15:46.127Z,9.93
2019-03-01T10:20:51.679Z,9.87
2019-03-01T10:25:57.190Z,9.47
2019-03-01T10:31:02.979Z,11.30
2019-03-01T10:36:09.973Z,11.87
2019-03-01T10:41:18.386Z,13.23
2019-03-01T10:46:24.065Z,13.73
2019-03-01T10:51:30.048Z,13.63
2019-03-01T10:56:35.713Z,14.23
2019-03-01T11:01:44.705Z,14.47
2019-03-01T11:06:50.391Z,15.30
2019-03-01T11:11:56.080Z,13.50
2019-03-01T11:17:03.777Z,12.30
2019-03-01T11:22:09.919Z,13.50
2019-03-01T11:27:15.725Z,13.40
2019-03-01T11:32:23.328Z,13.00
2019-03-01T11:37:28.893Z,12.83
2019-03-01T11:42:37.656Z,13.20
2019-03-01T11:47:50.163Z,13.60
2019-03-01T11:52:55.984Z,14.90
2019-03-01T11:58:01.640Z,14.70
2019-03-01T12:03:08.891Z,14.90
2019-03-01T12:08:14.438Z,13.83
2019-03-01T12:13:21.467Z,15.30
2019-03-01T12:18:27.229Z,14.30
2019-03-01T12:23:35.026Z,15.13
2019-03-01T12:28:40.515Z,14.00
2019-03-01T12:33:46.375Z,14.37
2019-03-01T12:38:52.004Z,14.90
2019-03-01T12:44:00.281Z,13.50
2019-03-01T12:49:07.347Z,13.50
2019-03-01T12:54:14.074Z,12.50
2019-03-01T12:59:20.068Z,14.30
2019-03-01T13:04:27.356Z,13.33
2019-03-01T13:09:32.843Z,14.23
2019-03-01T13:14:40.332Z,14.17
2019-03-01T13:19:45.748Z,14.57
2019-03-01T13:24:53.467Z,12.83
2019-03-01T13:29:59.811Z,14.97
2019-03-01T13:35:07.756Z,11.53
2019-03-01T13:40:14.502Z,12.87
2019-03-01T13:45:20.118Z,12.87
2019-03-01T13:50:26.241Z,12.00
2019-03-01T13:55:32.166Z,8.30
2019-03-01T14:00:41.148Z,7.50
2019-03-01T14:05:47.271Z,6.37
2019-03-01T14:10:54.524Z,5.73
2019-03-01T14:16:05.906Z,7.03
2019-03-01T14:21:11.958Z,6.73
2019-03-01T14:26:23.529Z,8.70
2019-03-01T14:31:32.632Z,8.47
2019-03-01T14:36:43.967Z,10.07
2019-03-01T14:41:52.735Z,9.60
2019-03-01T14:47:07.101Z,9.10
2019-03-01T14:52:15.153Z,8.50
2019-03-01T14:57:26.263Z,9.53
2019-03-01T15:03:06.010Z,9.23
2019-03-01T15:08:17.111Z,8.37
2019-03-01T15:13:31.444Z,8.90
2019-03-01T15:18:37.338Z,8.43
2019-03-01T15:23:42.969Z,8.20
2019-03-01T15:28:55.305Z,9.50
2019-03-01T15:34:01.610Z,9.83
2019-03-01T15:39:20.017Z,11.20
2019-03-01T15:44:30.229Z,13.07
2019-03-01T15:49:36.493Z,16.80
2019-03-01T15:54:51.424Z,15.30
2019-03-01T15:59:59.647Z,17.23
2019-03-01T16:05:09.925Z,18.90
2019-03-01T16:10:15.791Z,24.40
2019-03-01T16:15:26.755Z,27.53
2019-03-01T16:20:36.766Z,31.47
2019-03-01T16:25:44.399Z,33.77
2019-03-01T16:30:53.240Z,36.00
2019-03-01T16:35:58.456Z,39.03
2019-03-01T16:41:08.470Z,35.23
2019-03-01T16:46:18.091Z,36.30
2019-03-01T16:51:25.232Z,37.07
2019-03-01T16:56:38.449Z,32.90
2019-03-01T17:01:47.043Z,34.87
2019-03-01T17:06:52.781Z,34.80
2019-03-01T17:12:03.036Z,36.83
2019-03-01T17:17:09.030Z,34.83
2019-03-01T17:22:15.916Z,34.27
2019-03-01T17:27:26.950Z,33.77
2019-03-01T17:32:36.952Z,34.37
2019-03-01T17:37:42.572Z,34.50
2019-03-01T17:43:01.353Z,35.60
2019-03-01T17:48:11.980Z,33.47
2019-03-01T17:53:31.611Z,28.33
2019-03-01T17:58:39.717Z,18.13
2019-03-01T18:03:50.696Z,17.00
2019-03-01T18:08:59.395Z,17.77
2019-03-01T18:14:12.648Z,17.30
2019-03-01T18:19:26.617Z,18.63
2019-03-01T18:24:38.622Z,16.90
2019-03-01T18:29:49.980Z,14.07
2019-03-01T18:34:57.234Z,15.30
2019-03-01T18:40:09.932Z,14.77
2019-03-01T18:45:21.461Z,14.90
2019-03-01T18:50:33.354Z,14.30
2019-03-01T18:55:49.678Z,15.33
2019-03-01T19:01:00.047Z,12.90
2019-03-01T19:06:17.141Z,14.03
2019-03-01T19:11:23.434Z,14.43
2019-03-01T19:16:48.421Z,13.80
2019-03-01T19:21:58.281Z,15.30
2019-03-01T19:27:15.565Z,14.50
2019-03-01T19:32:26.590Z,14.50
2019-03-01T19:37:38.363Z,13.80
2019-03-01T19:42:54.748Z,13.67
2019-03-01T19:48:05.906Z,13.17
2019-03-01T19:53:17.297Z,13.97
2019-03-01T19:58:28.696Z,13.70
2019-03-01T20:03:48.549Z,14.13
2019-03-01T20:09:01.680Z,13.10
2019-03-01T20:14:16.864Z,12.97
2019-03-01T20:19:34.528Z,13.63
2019-03-01T20:24:48.097Z,12.40
2019-03-01T20:30:00.794Z,12.90
2019-03-01T20:35:16.007Z,12.27
2019-03-01T20:40:30.476Z,13.00
2019-03-01T20:45:45.179Z,12.03
2019-03-01T20:51:06.953Z,12.17
2019-03-01T20:56:13.845Z,11.93
2019-03-01T21:01:23.395Z,11.97
2019-03-01T21:06:43.323Z,12.00
2019-03-01T21:11:50.796Z,12.17
2019-03-01T21:17:13.050Z,12.07
2019-03-01T21:22:22.350Z,12.83
2019-03-01T21:27:38.209Z,11.97
2019-03-01T21:33:04.639Z,13.30
2019-03-01T21:38:17.047Z,12.47
2019-03-01T21:43:30.657Z,13.40
2019-03-01T21:48:48.650Z,12.60
2019-03-01T21:54:07.932Z,13.07
2019-03-01T21:59:23.906Z,11.80
2019-03-01T22:04:39.121Z,12.67
2019-03-01T22:09:46.603Z,12.50
2019-03-01T22:14:55.764Z,12.90
2019-03-01T22:20:08.879Z,12.73
2019-03-01T22:25:15.333Z,10.97
2019-03-01T22:30:43.791Z,12.70
2019-03-01T22:36:00.607Z,12.10
2019-03-01T22:41:06.234Z,11.23
2019-03-01T22:46:16.559Z,11.90
2019-03-01T22:51:26.921Z,10.80
2019-03-01T22:56:38.131Z,10.60
2019-03-01T23:01:48.908Z,9.07
2019-03-01T23:06:58.765Z,9.37
2019-03-01T23:12:10.432Z,9.20
2019-03-01T23:17:22.720Z,9.07
2019-03-01T23:22:34.078Z,8.30
2019-03-01T23:27:50.471Z,8.40
2019-03-01T23:32:58.172Z,8.80
2019-03-01T23:38:15.072Z,9.00
2019-03-01T23:43:21.448Z,9.30
2019-03-01T23:48:53.635Z,9.10
2019-03-01T23:54:01.487Z,8.87
2019-03-01T23:59:08.737Z,8.10
